createdAt,value
2022-12-17T00:00:57.941Z,81.44
2022-12-17T00:04:23.655Z,81.32
2022-12-17T00:07:48.170Z,81.24
2022-12-17T00:11:11.019Z,81.14
2022-12-17T00:14:35.455Z,81.23
2022-12-17T00:17:59.096Z,81.22
2022-12-17T00:21:30.457Z,81.22
2022-12-17T00:24:53.413Z,81.21
2022-12-17T00:28:19.214Z,81.17
2022-12-17T00:31:43.383Z,81.17
2022-12-17T00:35:07.931Z,81.27
2022-12-17T00:38:21.124Z,81.37
2022-12-17T00:41:43.870Z,81.30
2022-12-17T00:45:08.473Z,81.20
2022-12-17T00:48:33.508Z,81.32
2022-12-17T00:51:57.406Z,81.37
2022-12-17T00:55:21.342Z,81.46
2022-12-17T00:58:43.887Z,81.50
2022-12-17T01:02:09.772Z,81.50
2022-12-17T01:05:35.124Z,81.58
2022-12-17T01:08:58.504Z,81.69
2022-12-17T01:12:21.620Z,81.65
2022-12-17T01:15:47.350Z,81.70
2022-12-17T01:19:11.142Z,81.69
2022-12-17T01:22:35.145Z,81.56
2022-12-17T01:26:01.390Z,81.36
2022-12-17T01:29:26.871Z,81.27
2022-12-17T01:32:50.444Z,81.17
2022-12-17T01:36:15.124Z,81.20
2022-12-17T01:39:39.862Z,81.26
2022-12-17T01:43:12.609Z,81.25
2022-12-17T01:46:35.975Z,81.32
2022-12-17T01:49:59.191Z,81.48
2022-12-17T01:53:23.607Z,81.56
2022-12-17T01:56:31.473Z,81.70
2022-12-17T01:59:58.620Z,81.86
2022-12-17T02:03:25.140Z,81.79
2022-12-17T02:06:58.875Z,81.79
2022-12-17T02:10:45.468Z,81.88
2022-12-17T02:14:13.941Z,81.88
2022-12-17T02:17:39.166Z,81.81
2022-12-17T02:21:16.659Z,81.81
2022-12-17T02:24:46.265Z,81.90
2022-12-17T02:28:10.691Z,81.95
2022-12-17T02:31:19.699Z,81.97
2022-12-17T02:34:42.491Z,81.97
2022-12-17T02:38:06.393Z,82.00
2022-12-17T02:41:29.091Z,82.00
2022-12-17T02:44:54.528Z,81.94
2022-12-17T02:48:18.535Z,81.73
2022-12-17T02:51:42.682Z,81.75
2022-12-17T02:55:07.726Z,81.75
2022-12-17T02:58:32.881Z,81.74
2022-12-17T03:01:55.611Z,81.76
2022-12-17T03:05:43.887Z,81.76
2022-12-17T03:08:46.259Z,81.63
2022-12-17T03:12:10.136Z,81.65
2022-12-17T03:15:35.030Z,81.68
2022-12-17T03:18:55.610Z,81.73
2022-12-17T03:22:19.973Z,81.73
2022-12-17T03:25:44.700Z,81.63
2022-12-17T03:29:09.981Z,81.60
2022-12-17T03:32:33.542Z,81.44
2022-12-17T03:36:00.159Z,81.27
2022-12-17T03:39:23.653Z,81.34
2022-12-17T03:42:48.327Z,81.44
2022-12-17T03:46:12.714Z,81.70
2022-12-17T03:49:35.623Z,81.93
2022-12-17T03:52:58.328Z,82.00
2022-12-17T03:56:21.810Z,82.04
2022-12-17T03:59:45.534Z,81.94
2022-12-17T04:03:09.401Z,81.75
2022-12-17T04:06:30.824Z,81.93
2022-12-17T04:09:54.147Z,81.92
2022-12-17T04:13:17.490Z,81.95
2022-12-17T04:16:42.772Z,82.01
2022-12-17T04:20:07.153Z,82.10
2022-12-17T04:23:30.729Z,82.15
2022-12-17T04:26:54.175Z,82.15
2022-12-17T04:30:19.641Z,82.09
2022-12-17T04:33:43.408Z,82.04
2022-12-17T04:37:07.634Z,81.79
2022-12-17T04:40:31.499Z,81.89
2022-12-17T04:43:59.667Z,81.91
2022-12-17T04:47:20.566Z,81.99
2022-12-17T04:50:43.826Z,82.14
2022-12-17T04:54:05.816Z,82.21
2022-12-17T04:57:29.997Z,82.27
2022-12-17T05:00:53.359Z,82.30
2022-12-17T05:04:15.937Z,82.19
2022-12-17T05:07:38.559Z,82.15
2022-12-17T05:11:01.115Z,82.12
2022-12-17T05:14:23.310Z,82.07
2022-12-17T05:17:47.077Z,82.13
2022-12-17T05:21:11.382Z,82.16
2022-12-17T05:24:37.908Z,82.14
2022-12-17T05:28:01.579Z,82.21
2022-12-17T05:31:27.458Z,82.18
2022-12-17T05:34:50.250Z,82.15
2022-12-17T05:38:04.580Z,82.07
2022-12-17T05:41:30.086Z,82.08
2022-12-17T05:44:53.938Z,82.19
2022-12-17T05:48:18.019Z,82.37
2022-12-17T05:51:41.853Z,82.42
2022-12-17T05:55:03.695Z,82.35
2022-12-17T05:58:38.590Z,82.26
2022-12-17T06:02:00.890Z,82.38
2022-12-17T06:05:24.173Z,82.43
2022-12-17T06:08:47.278Z,82.59
2022-12-17T06:12:11.342Z,82.59
2022-12-17T06:15:34.789Z,82.60
2022-12-17T06:18:58.400Z,82.61
2022-12-17T06:22:24.973Z,82.48
2022-12-17T06:25:47.855Z,82.33
2022-12-17T06:29:12.060Z,82.37
2022-12-17T06:32:34.400Z,82.40
2022-12-17T06:35:59.952Z,82.46
2022-12-17T06:39:22.482Z,82.46
2022-12-17T06:42:46.384Z,82.45
2022-12-17T06:46:09.555Z,82.44
2022-12-17T06:49:32.310Z,82.43
2022-12-17T06:52:58.062Z,82.48
2022-12-17T06:56:21.676Z,82.52
2022-12-17T06:59:44.285Z,82.44
2022-12-17T07:03:10.189Z,82.31
2022-12-17T07:06:34.641Z,82.21
2022-12-17T07:09:58.750Z,82.09
2022-12-17T07:13:22.057Z,82.11
2022-12-17T07:16:45.427Z,82.18
2022-12-17T07:20:09.080Z,82.25
2022-12-17T07:23:32.562Z,82.23
2022-12-17T07:26:55.000Z,82.21
2022-12-17T07:30:04.737Z,82.21
2022-12-17T07:33:34.437Z,82.18
2022-12-17T07:36:58.606Z,82.22
2022-12-17T07:40:22.302Z,82.28
2022-12-17T07:43:49.648Z,82.37
2022-12-17T07:47:10.054Z,82.49
2022-12-17T07:50:32.721Z,82.55
2022-12-17T07:53:56.348Z,82.57
2022-12-17T07:57:17.790Z,82.37
2022-12-17T08:00:47.553Z,82.25
2022-12-17T08:04:07.545Z,82.37
2022-12-17T08:07:31.539Z,82.52
2022-12-17T08:10:58.446Z,82.56
2022-12-17T08:14:22.131Z,82.62
2022-12-17T08:17:45.491Z,82.59
2022-12-17T08:21:09.633Z,82.66
2022-12-17T08:24:31.940Z,82.63
2022-12-17T08:27:55.835Z,82.60
2022-12-17T08:31:21.036Z,82.57
2022-12-17T08:34:45.014Z,82.56
2022-12-17T08:38:09.413Z,82.58
2022-12-17T08:41:33.754Z,82.56
2022-12-17T08:44:57.262Z,82.61
2022-12-17T08:48:20.251Z,82.66
2022-12-17T08:51:47.343Z,82.62
2022-12-17T08:55:12.197Z,82.56
2022-12-17T08:58:35.404Z,82.58
2022-12-17T09:01:58.607Z,82.60
2022-12-17T09:05:25.462Z,82.39
2022-12-17T09:08:49.646Z,82.45
2022-12-17T09:12:14.114Z,82.61
2022-12-17T09:15:39.011Z,82.78
2022-12-17T09:19:02.057Z,82.75
2022-12-17T09:22:26.089Z,82.92
2022-12-17T09:25:52.477Z,83.03
2022-12-17T09:29:14.530Z,82.99
2022-12-17T09:32:38.675Z,83.09
2022-12-17T09:36:02.731Z,83.01
2022-12-17T09:39:26.601Z,82.93
2022-12-17T09:43:01.613Z,82.93
2022-12-17T09:46:33.702Z,83.08
2022-12-17T09:49:59.779Z,83.13
2022-12-17T09:53:23.902Z,83.04
2022-12-17T09:56:47.186Z,83.03
2022-12-17T10:00:10.812Z,82.96
2022-12-17T10:03:35.310Z,83.01
2022-12-17T10:06:59.015Z,83.07
2022-12-17T10:10:25.092Z,83.09
2022-12-17T10:13:51.496Z,83.03
2022-12-17T10:17:19.358Z,83.11
2022-12-17T10:21:11.914Z,83.22
2022-12-17T10:24:43.545Z,83.33
2022-12-17T10:28:06.421Z,83.45
2022-12-17T10:31:30.156Z,83.52
2022-12-17T10:34:52.571Z,83.52
2022-12-17T10:38:15.585Z,83.54
2022-12-17T10:41:50.622Z,83.58
2022-12-17T10:45:13.719Z,83.63
2022-12-17T10:48:38.872Z,83.66
2022-12-17T10:52:08.109Z,83.47
2022-12-17T10:55:34.582Z,83.43
2022-12-17T10:59:00.784Z,83.50
2022-12-17T11:02:30.124Z,83.47
2022-12-17T11:06:03.393Z,83.50
2022-12-17T11:09:27.700Z,83.56
2022-12-17T11:12:51.630Z,83.64
2022-12-17T11:16:32.639Z,83.73
2022-12-17T11:20:20.687Z,83.84
2022-12-17T11:23:51.635Z,83.89
2022-12-17T11:27:15.173Z,84.02
2022-12-17T11:30:48.094Z,84.04
2022-12-17T11:34:39.189Z,84.06
2022-12-17T11:38:10.630Z,84.07
2022-12-17T11:41:19.143Z,84.22
2022-12-17T11:45:01.040Z,84.33
2022-12-17T11:48:21.772Z,84.49
2022-12-17T11:52:03.756Z,84.61
2022-12-17T11:56:09.648Z,84.67
2022-12-17T12:00:13.017Z,84.74
2022-12-17T12:04:07.487Z,84.88
2022-12-17T12:08:02.358Z,85.08
2022-12-17T12:11:32.928Z,85.02
2022-12-17T12:15:12.382Z,85.01
2022-12-17T12:19:08.817Z,85.07
2022-12-17T12:22:53.106Z,85.04
2022-12-17T12:26:43.522Z,85.08
2022-12-17T12:30:35.640Z,85.14
2022-12-17T12:34:27.327Z,85.21
2022-12-17T12:37:51.099Z,85.20
2022-12-17T12:41:32.909Z,85.24
2022-12-17T12:45:35.563Z,85.28
2022-12-17T12:49:14.993Z,85.34
2022-12-17T12:52:41.894Z,85.49
2022-12-17T12:56:15.051Z,85.66
2022-12-17T12:59:55.194Z,85.75
2022-12-17T13:03:18.249Z,85.83
2022-12-17T13:06:23.920Z,85.86
2022-12-17T13:09:36.820Z,85.98
2022-12-17T13:12:51.772Z,86.05
2022-12-17T13:16:05.517Z,86.12
2022-12-17T13:19:20.729Z,86.30
2022-12-17T13:22:32.200Z,86.39
2022-12-17T13:25:38.172Z,86.55
2022-12-17T13:28:44.550Z,86.63
2022-12-17T13:32:00.867Z,86.68
2022-12-17T13:35:33.190Z,86.69
2022-12-17T13:39:00.145Z,86.70
2022-12-17T13:42:08.383Z,86.74
2022-12-17T13:45:15.626Z,86.74
2022-12-17T13:48:25.092Z,86.71
2022-12-17T13:51:36.123Z,86.77
2022-12-17T13:54:42.297Z,86.78
2022-12-17T13:57:48.536Z,86.82
2022-12-17T14:00:54.461Z,86.84
2022-12-17T14:04:10.700Z,86.92
2022-12-17T14:07:19.089Z,87.01
2022-12-17T14:10:31.075Z,87.01
2022-12-17T14:13:36.948Z,87.10
2022-12-17T14:16:47.455Z,87.24
2022-12-17T14:19:51.236Z,87.29
2022-12-17T14:22:58.884Z,87.33
2022-12-17T14:26:05.630Z,87.42
2022-12-17T14:29:11.582Z,87.59
2022-12-17T14:32:21.573Z,87.68
2022-12-17T14:35:45.222Z,87.76
2022-12-17T14:38:51.888Z,87.84
2022-12-17T14:42:16.003Z,87.88
2022-12-17T14:45:25.792Z,87.97
2022-12-17T14:48:34.505Z,88.10
2022-12-17T14:51:46.690Z,88.20
2022-12-17T14:54:52.960Z,88.28
2022-12-17T14:57:58.669Z,88.34
2022-12-17T15:01:19.007Z,88.33
2022-12-17T15:04:27.053Z,88.35
2022-12-17T15:07:40.693Z,88.51
2022-12-17T15:10:46.045Z,88.56
2022-12-17T15:13:56.294Z,88.54
2022-12-17T15:17:03.988Z,88.57
2022-12-17T15:20:09.650Z,88.61
2022-12-17T15:23:16.062Z,88.59
2022-12-17T15:26:24.274Z,88.60
2022-12-17T15:29:31.812Z,88.71
2022-12-17T15:32:37.807Z,88.78
2022-12-17T15:35:44.724Z,88.82
2022-12-17T15:38:50.741Z,88.83
2022-12-17T15:42:16.958Z,88.88
2022-12-17T15:45:26.220Z,88.94
2022-12-17T15:48:36.494Z,88.99
2022-12-17T15:51:43.326Z,89.01
2022-12-17T15:54:50.461Z,88.96
2022-12-17T15:57:57.433Z,89.00
2022-12-17T16:01:02.809Z,88.99
2022-12-17T16:04:16.789Z,89.02
2022-12-17T16:07:19.352Z,89.09
2022-12-17T16:10:26.329Z,89.14
2022-12-17T16:13:32.605Z,89.21
2022-12-17T16:16:39.688Z,89.22
2022-12-17T16:19:45.835Z,89.22
2022-12-17T16:22:52.810Z,89.26
2022-12-17T16:25:58.442Z,89.31
2022-12-17T16:29:03.067Z,89.36
2022-12-17T16:32:09.199Z,89.35
2022-12-17T16:35:15.359Z,89.39
2022-12-17T16:38:23.011Z,89.46
2022-12-17T16:41:28.451Z,89.48
2022-12-17T16:44:35.394Z,89.50
2022-12-17T16:47:41.039Z,89.50
2022-12-17T16:50:48.922Z,89.53
2022-12-17T16:53:55.453Z,89.55
2022-12-17T16:57:01.339Z,89.58
2022-12-17T17:00:06.755Z,89.60
2022-12-17T17:03:13.488Z,89.63
2022-12-17T17:06:22.178Z,89.68
2022-12-17T17:09:29.132Z,89.74
2022-12-17T17:12:34.502Z,89.80
2022-12-17T17:15:39.543Z,89.81
2022-12-17T17:18:47.431Z,89.81
2022-12-17T17:21:55.974Z,89.82
2022-12-17T17:25:01.657Z,89.79
2022-12-17T17:28:09.255Z,89.83
2022-12-17T17:31:15.915Z,89.85
2022-12-17T17:34:27.987Z,89.87
2022-12-17T17:37:36.467Z,89.88
2022-12-17T17:40:45.025Z,89.89
2022-12-17T17:43:51.342Z,89.90
2022-12-17T17:46:58.464Z,89.93
2022-12-17T17:50:08.614Z,89.94
2022-12-17T17:53:15.896Z,89.96
2022-12-17T17:56:25.447Z,89.98
2022-12-17T17:59:34.038Z,89.98
2022-12-17T18:02:41.048Z,89.99
2022-12-17T18:05:53.129Z,90.02
2022-12-17T18:08:58.562Z,90.01
2022-12-17T18:12:03.773Z,90.04
2022-12-17T18:15:15.896Z,90.05
2022-12-17T18:18:17.712Z,90.05
2022-12-17T18:21:26.387Z,90.06
2022-12-17T18:24:37.610Z,90.06
2022-12-17T18:27:44.833Z,90.04
2022-12-17T18:30:52.022Z,90.04
2022-12-17T18:34:00.170Z,90.00
2022-12-17T18:37:05.846Z,90.01
2022-12-17T18:40:11.423Z,90.00
2022-12-17T18:43:31.342Z,89.99
2022-12-17T18:46:37.128Z,89.99
2022-12-17T18:49:45.947Z,89.97
2022-12-17T18:52:51.510Z,89.95
2022-12-17T18:55:58.173Z,89.92
2022-12-17T18:59:06.431Z,89.93
2022-12-17T19:02:13.504Z,89.90
2022-12-17T19:05:19.500Z,89.90
2022-12-17T19:08:25.374Z,89.87
2022-12-17T19:11:37.933Z,89.91
2022-12-17T19:14:41.146Z,89.92
2022-12-17T19:17:50.077Z,89.92
2022-12-17T19:20:56.762Z,89.91
2022-12-17T19:24:03.521Z,89.89
2022-12-17T19:27:10.462Z,89.90
2022-12-17T19:30:19.597Z,89.91
2022-12-17T19:33:26.441Z,89.91
2022-12-17T19:36:34.534Z,89.92
2022-12-17T19:39:43.443Z,89.89
2022-12-17T19:42:48.391Z,89.89
2022-12-17T19:45:55.403Z,89.85
2022-12-17T19:49:03.571Z,89.89
2022-12-17T19:52:11.341Z,89.89
2022-12-17T19:55:16.378Z,89.94
2022-12-17T19:58:22.572Z,89.98
2022-12-17T20:01:33.786Z,90.02
2022-12-17T20:04:39.085Z,90.00
2022-12-17T20:07:45.481Z,90.04
2022-12-17T20:10:52.273Z,90.08
2022-12-17T20:14:01.109Z,90.10
2022-12-17T20:17:14.530Z,90.13
2022-12-17T20:20:21.560Z,90.12
2022-12-17T20:23:27.738Z,90.16
2022-12-17T20:26:35.273Z,90.15
2022-12-17T20:29:40.401Z,90.18
2022-12-17T20:32:46.414Z,90.16
2022-12-17T20:35:54.664Z,90.17
2022-12-17T20:39:00.940Z,90.19
2022-12-17T20:42:08.098Z,90.16
2022-12-17T20:45:14.461Z,90.14
2022-12-17T20:48:20.594Z,90.09
2022-12-17T20:51:30.155Z,90.02
2022-12-17T20:54:36.576Z,89.87
2022-12-17T20:57:41.521Z,89.64
2022-12-17T21:00:49.403Z,89.48
2022-12-17T21:03:56.564Z,89.26
2022-12-17T21:07:03.289Z,89.15
2022-12-17T21:10:11.539Z,89.05
2022-12-17T21:13:37.835Z,89.08
2022-12-17T21:16:45.532Z,89.13
2022-12-17T21:19:51.736Z,88.96
2022-12-17T21:22:57.714Z,88.83
2022-12-17T21:26:22.331Z,88.76
2022-12-17T21:29:28.187Z,88.72
2022-12-17T21:32:33.960Z,88.71
2022-12-17T21:35:42.588Z,88.72
2022-12-17T21:38:47.616Z,88.58
2022-12-17T21:41:56.585Z,88.41
2022-12-17T21:45:03.649Z,88.32
2022-12-17T21:48:14.153Z,88.31
2022-12-17T21:51:19.001Z,88.27
2022-12-17T21:54:26.284Z,88.10
2022-12-17T21:57:33.085Z,87.92
2022-12-17T22:00:38.007Z,87.75
2022-12-17T22:03:43.774Z,87.67
2022-12-17T22:06:58.442Z,87.66
2022-12-17T22:10:03.687Z,87.78
2022-12-17T22:13:08.599Z,87.69
2022-12-17T22:16:15.677Z,87.67
2022-12-17T22:19:24.494Z,87.67
2022-12-17T22:22:31.658Z,87.57
2022-12-17T22:25:38.365Z,87.68
2022-12-17T22:28:44.592Z,87.78
2022-12-17T22:32:09.308Z,87.73
2022-12-17T22:36:50.321Z,87.78
2022-12-17T22:41:27.939Z,87.79
2022-12-17T22:44:32.196Z,87.79
2022-12-17T22:45:08.139Z,87.81
2022-12-17T22:48:08.421Z,87.79
2022-12-17T22:51:28.282Z,87.87
2022-12-17T22:54:23.587Z,87.91
2022-12-17T22:57:36.229Z,87.86
2022-12-17T23:00:42.752Z,87.86
2022-12-17T23:03:48.477Z,87.76
2022-12-17T23:06:53.842Z,87.71
2022-12-17T23:09:59.265Z,87.72
2022-12-17T23:13:07.699Z,87.67
2022-12-17T23:16:13.875Z,87.58
2022-12-17T23:19:19.636Z,87.53
2022-12-17T23:22:25.897Z,87.53
2022-12-17T23:25:31.642Z,87.57
2022-12-17T23:28:36.596Z,87.57
2022-12-17T23:31:47.587Z,87.63
2022-12-17T23:34:53.374Z,87.67
2022-12-17T23:37:59.317Z,87.69
2022-12-17T23:41:05.556Z,87.67
2022-12-17T23:44:14.549Z,87.71
2022-12-17T23:47:21.927Z,87.76
2022-12-17T23:50:27.746Z,87.79
2022-12-17T23:53:33.510Z,87.76
2022-12-17T23:56:40.988Z,87.72
2022-12-17T23:59:46.930Z,87.68
